Time;durP1;ratioP1;P1;durP2;ratioP2;P2;SDS_P1;SDS_P2;PMS_P1;PMS_P2;Temp;Humidity;BMP_temperature;BMP_pressure;BME280_temperature;BME280_humidity;BME280_pressure;Samples;Min_cycle;Max_cycle;Signal;HPM_P1;HPM_P2
2023/03/30 00:00:20;;;;;;;;;;;;;;;10.57;30.87;95626.72;5069119;28;19982;-69
2023/03/30 00:02:49;;;;;;;;;;;;;;;10.74;30.42;95623.09;5056259;28;19974;-71
2023/03/30 00:05:18;;;;;;;;;;;;;;;10.81;30.23;95623.72;5068717;28;19929;-70
2023/03/30 00:07:45;;;;;;;;;;;;;;;10.90;30.83;95624.91;5068482;28;19924;-72
2023/03/30 00:10:14;;;;;;;;;;;;;;;10.41;31.41;95623.06;5068913;28;19960;-69
2023/03/30 00:12:42;;;;;;;;;;;;;;;10.56;31.34;95623.31;5068260;28;20344;-68
2023/03/30 00:15:11;;;;;;;;;;;;;;;10.77;30.69;95608.69;5068848;28;19934;-70
2023/03/30 00:17:38;;;;;;;;;;;;;;;10.51;31.34;95612.75;5068362;28;19945;-71
2023/03/30 00:20:10;;;;;;;;;;;;;;;10.84;30.68;95612.75;5068797;28;19924;-69
2023/03/30 00:22:38;;;;;;;;;;;;;;;10.68;31.22;95613.56;5068853;28;19928;-70
2023/03/30 00:25:05;;;;;;;;;;;;;;;10.30;31.37;95610.81;5068785;28;19983;-69
2023/03/30 00:27:32;;;;;;;;;;;;;;;9.84;31.88;95603.13;5070137;28;19982;-68
2023/03/30 00:29:58;;;;;;;;;;;;;;;9.84;31.94;95600.50;5071444;28;19939;-69
2023/03/30 00:32:25;;;;;;;;;;;;;;;9.71;32.55;95608.63;5066867;28;19925;-68
2023/03/30 00:34:53;;;;;;;;;;;;;;;9.60;32.54;95614.72;5068755;28;20025;-68
2023/03/30 00:37:20;;;;;;;;;;;;;;;10.35;31.79;95610.91;5050204;28;20296;-71
2023/03/30 00:39:46;;;;;;;;;;;;;;;9.87;32.12;95605.31;5050537;28;19928;-67
2023/03/30 00:42:15;;;;;;;;;;;;;;;9.94;32.11;95616.41;5068072;28;19936;-70
2023/03/30 00:45:03;;;;;;;;;;;;;;;9.97;32.56;95610.72;5050587;28;19931;-70
2023/03/30 00:47:29;;;;;;;;;;;;;;;9.15;33.81;95611.94;5049764;28;20414;-68
2023/03/30 00:49:56;;;;;;;;;;;;;;;9.11;34.23;95611.59;5067948;28;20016;-69
2023/03/30 00:52:26;;;;;;;;;;;;;;;9.17;34.27;95621.16;5067855;28;20429;-71
2023/03/30 00:54:55;;;;;;;;;;;;;;;9.78;34.00;95614.53;5068649;28;20383;-73
2023/03/30 00:57:23;;;;;;;;;;;;;;;10.26;33.36;95608.88;5067555;28;19932;-69
2023/03/30 00:59:51;;;;;;;;;;;;;;;9.68;34.21;95616.94;5050154;28;20406;-71
2023/03/30 01:02:20;;;;;;;;;;;;;;;10.02;34.18;95619.44;5049812;28;19937;-69
2023/03/30 01:04:49;;;;;;;;;;;;;;;9.88;34.17;95617.34;5068260;28;19924;-71
2023/03/30 01:07:16;;;;;;;;;;;;;;;10.08;34.17;95622.97;5049314;28;19925;-69
2023/03/30 01:09:43;;;;;;;;;;;;;;;9.45;35.04;95611.78;5068586;28;20001;-71
2023/03/30 01:12:10;;;;;;;;;;;;;;;9.69;34.69;95619.31;5067524;28;19929;-70
2023/03/30 01:14:37;;;;;;;;;;;;;;;9.65;34.82;95618.19;5068350;28;20279;-69
2023/03/30 01:17:12;;;;;;;;;;;;;;;9.75;35.07;95623.66;5067319;28;19925;-69
2023/03/30 01:19:57;;;;;;;;;;;;;;;10.14;34.07;95616.81;5068375;28;19925;-68
2023/03/30 01:22:44;;;;;;;;;;;;;;;9.72;35.10;95612.84;5070729;28;20646;-68
2023/03/30 01:25:29;;;;;;;;;;;;;;;9.58;35.40;95616.75;5053021;28;19928;-70
2023/03/30 01:28:01;;;;;;;;;;;;;;;9.58;35.19;95627.22;5063303;28;19929;-69
2023/03/30 01:30:54;;;;;;;;;;;;;;;9.64;35.10;95626.28;5070918;28;19928;-69
2023/03/30 01:33:21;;;;;;;;;;;;;;;9.28;35.72;95621.34;5050318;28;20062;-70
2023/03/30 01:35:51;;;;;;;;;;;;;;;9.86;34.85;95614.16;5071379;28;19928;-70
2023/03/30 01:38:37;;;;;;;;;;;;;;;10.51;34.00;95620.59;5053122;28;19935;-70
2023/03/30 01:41:14;;;;;;;;;;;;;;;10.26;34.08;95630.66;5052440;28;20355;-70
2023/03/30 01:43:46;;;;;;;;;;;;;;;9.56;35.07;95629.28;5071649;28;20387;-70
2023/03/30 01:46:24;;;;;;;;;;;;;;;10.25;34.13;95628.28;5070691;28;19960;-71
2023/03/30 01:48:53;;;;;;;;;;;;;;;9.84;34.96;95621.44;5069731;28;19950;-70
2023/03/30 01:51:27;;;;;;;;;;;;;;;10.02;34.36;95616.03;5052375;28;19967;-70
2023/03/30 01:54:17;;;;;;;;;;;;;;;10.04;34.72;95621.84;5070904;28;20454;-71
2023/03/30 01:56:47;;;;;;;;;;;;;;;9.42;35.58;95620.06;5069862;28;19929;-70
2023/03/30 01:59:23;;;;;;;;;;;;;;;10.03;34.26;95615.81;5052663;28;20360;-70
2023/03/30 02:01:52;;;;;;;;;;;;;;;9.00;36.31;95625.47;5070349;28;19935;-70
2023/03/30 02:04:21;;;;;;;;;;;;;;;9.52;35.51;95638.59;5052571;28;19997;-70
2023/03/30 02:06:54;;;;;;;;;;;;;;;9.60;35.19;95635.66;5070634;28;20482;-69
2023/03/30 02:09:23;;;;;;;;;;;;;;;9.25;36.39;95634.88;5071013;28;20376;-70
2023/03/30 02:11:52;;;;;;;;;;;;;;;9.25;36.29;95622.63;5070073;28;20334;-70
2023/03/30 02:14:22;;;;;;;;;;;;;;;9.37;36.15;95628.63;5052634;28;19932;-69
2023/03/30 02:16:56;;;;;;;;;;;;;;;9.31;36.38;95619.06;5052501;28;19925;-69
2023/03/30 02:19:23;;;;;;;;;;;;;;;9.58;36.54;95627.22;5058278;28;19932;-69
2023/03/30 02:21:49;;;;;;;;;;;;;;;9.90;35.91;95626.56;5052306;28;19932;-66
2023/03/30 02:24:19;;;;;;;;;;;;;;;9.87;36.02;95636.72;5052677;28;19928;-67
2023/03/30 02:26:48;;;;;;;;;;;;;;;9.74;36.00;95636.97;5052184;28;19935;-67
2023/03/30 02:29:15;;;;;;;;;;;;;;;10.22;35.07;95632.13;5070577;28;19974;-70
2023/03/30 02:31:44;;;;;;;;;;;;;;;10.41;34.97;95633.53;5069745;28;20048;-72
2023/03/30 02:34:29;;;;;;;;;;;;;;;10.03;35.47;95635.97;5052677;28;19948;-67
2023/03/30 02:37:17;;;;;;;;;;;;;;;9.96;36.02;95632.69;5051971;28;19939;-67
2023/03/30 02:40:07;;;;;;;;;;;;;;;10.27;35.70;95642.72;5069846;28;19942;-68
2023/03/30 02:42:52;;;;;;;;;;;;;;;9.78;36.22;95635.47;5069619;28;20045;-70
2023/03/30 02:45:29;;;;;;;;;;;;;;;10.09;36.07;95640.31;5052280;28;19958;-69
2023/03/30 02:47:56;;;;;;;;;;;;;;;9.71;37.35;95647.88;5069126;28;19957;-67
2023/03/30 02:50:26;;;;;;;;;;;;;;;9.18;37.93;95651.47;5051553;28;19957;-70
2023/03/30 02:52:58;;;;;;;;;;;;;;;9.23;38.73;95642.97;5051235;28;20001;-68
2023/03/30 02:55:38;;;;;;;;;;;;;;;9.41;38.27;95610.66;5051564;28;19981;-68
2023/03/30 02:58:32;;;;;;;;;;;;;;;9.57;38.76;95649.16;5058936;28;20027;-67
2023/03/30 03:01:15;;;;;;;;;;;;;;;9.31;39.41;95647.84;5067511;28;19925;-69
2023/03/30 03:03:50;;;;;;;;;;;;;;;9.42;39.10;95647.03;5051673;28;19948;-69
2023/03/30 03:06:19;;;;;;;;;;;;;;;9.29;39.51;95654.34;5068810;28;19928;-68
2023/03/30 03:08:52;;;;;;;;;;;;;;;9.36;39.31;95655.00;5069370;28;19954;-68
2023/03/30 03:11:23;;;;;;;;;;;;;;;9.38;39.74;95658.97;5051365;28;19986;-71
2023/03/30 03:13:50;;;;;;;;;;;;;;;9.68;39.04;95661.44;5070253;28;20038;-69
2023/03/30 03:16:17;;;;;;;;;;;;;;;9.64;39.33;95655.06;5051444;28;19990;-70
2023/03/30 03:19:16;;;;;;;;;;;;;;;10.04;38.64;95659.28;5045748;28;19962;-71
2023/03/30 03:21:46;;;;;;;;;;;;;;;9.66;39.50;95663.47;5067123;28;19980;-68
2023/03/30 03:24:16;;;;;;;;;;;;;;;9.45;40.31;95658.88;5061094;28;20372;-70
2023/03/30 03:27:11;;;;;;;;;;;;;;;9.53;40.28;95661.13;5067605;28;19928;-73
2023/03/30 03:29:58;;;;;;;;;;;;;;;9.14;40.91;95671.25;5057773;28;20368;-69
2023/03/30 03:32:25;;;;;;;;;;;;;;;9.32;40.68;95659.09;5050357;28;19944;-70
2023/03/30 03:34:53;;;;;;;;;;;;;;;9.35;41.26;95663.88;5067900;28;19987;-70
2023/03/30 03:37:20;;;;;;;;;;;;;;;10.07;39.43;95666.66;5053207;28;19934;-69
2023/03/30 03:39:47;;;;;;;;;;;;;;;9.81;39.99;95667.22;5079517;28;19958;-69
2023/03/30 03:42:16;;;;;;;;;;;;;;;10.00;39.83;95668.63;5051352;28;19932;-69
2023/03/30 03:44:51;;;;;;;;;;;;;;;9.71;40.56;95676.66;5050233;28;20403;-70
2023/03/30 03:47:18;;;;;;;;;;;;;;;9.68;41.12;95687.59;5050521;28;19924;-70
2023/03/30 03:49:45;;;;;;;;;;;;;;;9.91;41.12;95685.72;5037534;28;20018;-70
2023/03/30 03:52:13;;;;;;;;;;;;;;;9.36;42.00;95691.63;5068276;28;20005;-70
2023/03/30 03:54:40;;;;;;;;;;;;;;;10.03;41.05;95688.34;5051340;28;20292;-70
2023/03/30 03:57:07;;;;;;;;;;;;;;;9.97;41.15;95684.81;5050085;28;19944;-70
2023/03/30 03:59:34;;;;;;;;;;;;;;;10.06;41.00;95688.66;5069413;28;19974;-69
2023/03/30 04:02:00;;;;;;;;;;;;;;;9.96;40.83;95698.91;5026877;28;20284;-71
2023/03/30 04:04:27;;;;;;;;;;;;;;;10.26;40.56;95688.28;5039817;28;19993;-71
2023/03/30 04:06:55;;;;;;;;;;;;;;;9.92;41.08;95684.72;5062985;28;19941;-72
2023/03/30 04:09:22;;;;;;;;;;;;;;;9.90;41.41;95689.41;5062373;28;19933;-69
2023/03/30 04:12:11;;;;;;;;;;;;;;;9.53;42.45;95684.66;5025083;28;20396;-70
2023/03/30 04:15:16;;;;;;;;;;;;;;;9.86;41.90;95687.47;5006456;28;19945;-68
2023/03/30 04:18:08;;;;;;;;;;;;;;;10.03;41.36;95693.56;4996664;28;19945;-69
2023/03/30 04:21:03;;;;;;;;;;;;;;;9.80;42.09;95683.94;5037822;28;19938;-68
2023/03/30 04:23:38;;;;;;;;;;;;;;;9.33;43.07;95686.84;5050946;28;19950;-70
2023/03/30 04:26:17;;;;;;;;;;;;;;;9.33;43.06;95681.59;5069265;28;19962;-70
2023/03/30 04:29:07;;;;;;;;;;;;;;;9.13;43.51;95682.75;5039971;28;19947;-69
2023/03/30 04:31:49;;;;;;;;;;;;;;;9.81;42.34;95685.53;5050140;28;19983;-70
2023/03/30 04:34:44;;;;;;;;;;;;;;;10.22;41.58;95686.38;5051073;28;19949;-70
2023/03/30 04:37:32;;;;;;;;;;;;;;;9.58;42.65;95679.56;5065267;28;20340;-73
2023/03/30 04:40:31;;;;;;;;;;;;;;;10.04;41.92;95692.53;5034334;28;20062;-67
2023/03/30 04:43:24;;;;;;;;;;;;;;;9.82;42.15;95696.78;5063213;28;19949;-67
2023/03/30 04:46:01;;;;;;;;;;;;;;;10.17;41.71;95700.16;5036887;28;19947;-69
2023/03/30 04:48:46;;;;;;;;;;;;;;;9.65;42.22;95706.38;5068847;28;20329;-66
2023/03/30 04:51:39;;;;;;;;;;;;;;;9.76;43.31;95702.97;5037070;28;19953;-70
2023/03/30 04:54:25;;;;;;;;;;;;;;;9.98;41.81;95698.72;5055947;28;20497;-74
2023/03/30 04:57:15;;;;;;;;;;;;;;;10.19;41.35;95698.09;5027182;28;19948;-72
2023/03/30 05:00:00;;;;;;;;;;;;;;;10.50;40.86;95694.22;5071778;28;19953;-72
2023/03/30 05:02:39;;;;;;;;;;;;;;;10.01;41.23;95695.63;5059472;28;20356;-69
2023/03/30 05:05:42;;;;;;;;;;;;;;;10.21;41.24;95711.75;4970825;28;19926;-72
2023/03/30 05:08:16;;;;;;;;;;;;;;;10.13;42.99;95710.28;5041340;28;20009;-71
2023/03/30 05:11:03;;;;;;;;;;;;;;;10.39;42.44;95703.72;5070955;28;19977;-66
2023/03/30 05:13:46;;;;;;;;;;;;;;;10.43;41.48;95709.28;5054089;28;20064;-71
2023/03/30 05:16:31;;;;;;;;;;;;;;;10.46;41.12;95703.56;5072271;28;20368;-73
2023/03/30 05:19:26;;;;;;;;;;;;;;;10.39;41.66;95703.72;5043554;28;19928;-73
2023/03/30 05:22:08;;;;;;;;;;;;;;;10.56;41.49;95707.19;5053888;28;19944;-70
2023/03/30 05:24:46;;;;;;;;;;;;;;;10.76;41.76;95702.28;5072877;28;20365;-71
2023/03/30 05:27:42;;;;;;;;;;;;;;;10.77;41.59;95701.25;5070452;28;19983;-67
2023/03/30 05:30:34;;;;;;;;;;;;;;;10.86;41.02;95697.22;5032975;28;19965;-66
2023/03/30 05:33:24;;;;;;;;;;;;;;;10.74;41.84;95712.22;5040361;28;19944;-67
2023/03/30 05:36:17;;;;;;;;;;;;;;;10.98;41.45;95700.53;5022000;28;19992;-68
2023/03/30 05:38:57;;;;;;;;;;;;;;;11.24;40.94;95696.50;5051759;28;19945;-70
2023/03/30 05:41:47;;;;;;;;;;;;;;;11.02;41.40;95693.78;5052002;28;19942;-68
2023/03/30 05:44:36;;;;;;;;;;;;;;;11.13;41.36;95700.03;5074636;28;19992;-69
2023/03/30 05:47:21;;;;;;;;;;;;;;;10.92;41.90;95709.38;5070020;28;19949;-70
2023/03/30 05:50:06;;;;;;;;;;;;;;;10.94;42.01;95712.56;5069023;28;19999;-69
2023/03/30 05:52:53;;;;;;;;;;;;;;;11.00;41.83;95719.47;5070784;28;20042;-70
2023/03/30 05:55:30;;;;;;;;;;;;;;;10.96;42.15;95720.19;5052410;28;19932;-68
2023/03/30 05:58:16;;;;;;;;;;;;;;;10.91;42.22;95723.50;5062400;28;19948;-68
2023/03/30 06:01:04;;;;;;;;;;;;;;;10.72;42.53;95730.00;5059105;28;20086;-67
2023/03/30 06:03:37;;;;;;;;;;;;;;;10.72;43.20;95730.00;5054234;28;20039;-68
2023/03/30 06:06:07;;;;;;;;;;;;;;;10.81;43.11;95733.84;5052997;28;19928;-69
2023/03/30 06:08:35;;;;;;;;;;;;;;;10.82;42.69;95734.63;5054226;28;20372;-69
2023/03/30 06:11:03;;;;;;;;;;;;;;;10.74;42.74;95738.44;5053054;28;19929;-68
2023/03/30 06:13:42;;;;;;;;;;;;;;;10.89;42.94;95735.28;5053819;28;20009;-68
2023/03/30 06:16:09;;;;;;;;;;;;;;;10.84;42.73;95737.78;5071255;28;20385;-67
2023/03/30 06:18:37;;;;;;;;;;;;;;;10.98;42.36;95745.13;5053946;28;19964;-68
2023/03/30 06:21:07;;;;;;;;;;;;;;;10.53;43.49;95743.56;5053048;28;19947;-69
2023/03/30 06:24:00;;;;;;;;;;;;;;;11.00;42.79;95739.66;5047572;28;19924;-69
2023/03/30 06:26:30;;;;;;;;;;;;;;;10.91;42.47;95741.88;5052856;28;19950;-68
2023/03/30 06:28:57;;;;;;;;;;;;;;;10.82;42.76;95739.88;5071630;28;19939;-66
2023/03/30 06:31:24;;;;;;;;;;;;;;;10.60;42.97;95744.97;5053063;28;20355;-69
2023/03/30 06:34:11;;;;;;;;;;;;;;;10.50;42.72;95744.81;5071170;28;19929;-70
2023/03/30 06:36:38;;;;;;;;;;;;;;;10.64;43.09;95745.28;5052721;28;19967;-69
2023/03/30 06:39:13;;;;;;;;;;;;;;;10.76;42.76;95741.63;5069323;28;20015;-68
2023/03/30 06:41:40;;;;;;;;;;;;;;;10.72;42.87;95743.13;5052617;28;19952;-68
2023/03/30 06:44:21;;;;;;;;;;;;;;;10.80;43.00;95747.97;5053202;28;19925;-67
2023/03/30 06:46:49;;;;;;;;;;;;;;;11.01;42.50;95749.09;5057641;28;20036;-71
2023/03/30 06:49:16;;;;;;;;;;;;;;;11.13;42.63;95742.75;5071277;28;19982;-71
2023/03/30 06:51:42;;;;;;;;;;;;;;;11.27;42.22;95739.81;5053278;28;19985;-71
2023/03/30 06:54:10;;;;;;;;;;;;;;;11.14;41.75;95749.63;5052619;28;20351;-69
2023/03/30 06:56:42;;;;;;;;;;;;;;;10.72;42.12;95755.41;5052139;28;19928;-69
2023/03/30 06:59:12;;;;;;;;;;;;;;;10.96;42.18;95755.09;5052725;28;19933;-69
2023/03/30 07:01:59;;;;;;;;;;;;;;;11.30;41.27;95749.84;5069934;28;20388;-68
2023/03/30 07:04:50;;;;;;;;;;;;;;;11.76;40.64;95752.16;5070272;28;20399;-70
2023/03/30 07:07:23;;;;;;;;;;;;;;;11.57;40.99;95763.94;5052016;28;20399;-70
2023/03/30 07:09:50;;;;;;;;;;;;;;;11.76;39.93;95760.03;5052933;28;19986;-67
2023/03/30 07:12:17;;;;;;;;;;;;;;;11.94;40.05;95762.38;5051960;28;19934;-69
2023/03/30 07:14:47;;;;;;;;;;;;;;;12.07;39.71;95762.03;5052796;28;19935;-68
2023/03/30 07:17:14;;;;;;;;;;;;;;;12.24;39.89;95754.91;5051792;28;19932;-69
2023/03/30 07:19:41;;;;;;;;;;;;;;;12.41;39.29;95760.88;5051762;28;19994;-69
2023/03/30 07:22:08;;;;;;;;;;;;;;;12.31;39.42;95755.50;5051330;28;19945;-67
2023/03/30 07:24:35;;;;;;;;;;;;;;;12.54;38.97;95757.88;5052230;28;19951;-69
2023/03/30 07:27:02;;;;;;;;;;;;;;;12.49;39.45;95752.56;5051619;28;19929;-70
2023/03/30 07:29:29;;;;;;;;;;;;;;;12.67;39.18;95754.84;5070002;28;19924;-70
2023/03/30 07:31:57;;;;;;;;;;;;;;;12.50;39.27;95758.63;5051634;28;19936;-68
2023/03/30 07:34:24;;;;;;;;;;;;;;;12.59;38.71;95757.91;5052024;28;19994;-67
2023/03/30 07:36:54;;;;;;;;;;;;;;;12.75;38.46;95753.63;5051613;28;20405;-70
2023/03/30 07:39:25;;;;;;;;;;;;;;;12.79;38.63;95744.97;5052136;28;19946;-70
2023/03/30 07:41:53;;;;;;;;;;;;;;;12.92;38.32;95763.00;5070051;28;19924;-70
2023/03/30 07:44:20;;;;;;;;;;;;;;;12.91;38.45;95760.63;5051786;28;19929;-70
2023/03/30 07:46:47;;;;;;;;;;;;;;;12.84;38.24;95760.84;5051072;28;20027;-70
2023/03/30 07:49:21;;;;;;;;;;;;;;;13.12;38.17;95757.16;5051892;28;20402;-67
2023/03/30 07:51:48;;;;;;;;;;;;;;;13.19;37.99;95752.50;5051442;28;19928;-70
2023/03/30 07:54:47;;;;;;;;;;;;;;;13.20;38.64;95746.19;5043401;28;19932;-71
2023/03/30 07:57:21;;;;;;;;;;;;;;;13.47;37.93;95746.91;5050666;28;19986;-67
2023/03/30 07:59:48;;;;;;;;;;;;;;;13.68;36.97;95742.59;5051664;28;20291;-71
2023/03/30 08:02:26;;;;;;;;;;;;;;;13.92;37.61;95751.72;5051084;28;19981;-67
2023/03/30 08:04:54;;;;;;;;;;;;;;;13.62;37.29;95740.97;5069558;28;19932;-70
2023/03/30 08:07:31;;;;;;;;;;;;;;;14.01;36.42;95742.28;5051132;28;19925;-68
2023/03/30 08:10:07;;;;;;;;;;;;;;;13.46;37.04;95752.44;5052026;28;19929;-66
2023/03/30 08:12:35;;;;;;;;;;;;;;;13.77;36.40;95754.25;5067666;28;19931;-71
2023/03/30 08:15:02;;;;;;;;;;;;;;;13.56;36.27;95747.25;5051510;28;19935;-68
2023/03/30 08:17:29;;;;;;;;;;;;;;;13.42;37.03;95746.09;5069254;28;19921;-66
2023/03/30 08:19:56;;;;;;;;;;;;;;;13.69;36.63;95739.72;5069648;28;20054;-68
2023/03/30 08:22:23;;;;;;;;;;;;;;;14.06;36.43;95731.75;5068719;28;20035;-68
2023/03/30 08:24:50;;;;;;;;;;;;;;;14.13;36.36;95734.94;5069698;28;20297;-70
2023/03/30 08:27:16;;;;;;;;;;;;;;;14.37;36.05;95732.69;5055728;28;20478;-72
2023/03/30 08:29:43;;;;;;;;;;;;;;;14.50;35.43;95729.59;5073795;28;20023;-67
2023/03/30 08:32:09;;;;;;;;;;;;;;;14.41;35.46;95728.50;5078670;28;20405;-65
2023/03/30 08:34:36;;;;;;;;;;;;;;;14.52;35.69;95730.94;5073357;28;19954;-71
2023/03/30 08:37:04;;;;;;;;;;;;;;;14.73;35.17;95732.56;5073523;28;19997;-69
2023/03/30 08:39:32;;;;;;;;;;;;;;;15.00;35.11;95729.69;5073452;28;19921;-68
2023/03/30 08:42:28;;;;;;;;;;;;;;;15.19;33.49;95731.56;5072898;28;19958;-68
2023/03/30 08:44:56;;;;;;;;;;;;;;;14.43;35.08;95731.69;5012058;28;20071;-67
2023/03/30 08:47:29;;;;;;;;;;;;;;;14.63;34.17;95734.38;5066038;28;20001;-71
2023/03/30 08:50:03;;;;;;;;;;;;;;;15.01;33.12;95729.44;5073744;28;19942;-70
2023/03/30 08:52:32;;;;;;;;;;;;;;;14.89;33.22;95731.53;5072437;28;19937;-68
2023/03/30 08:55:00;;;;;;;;;;;;;;;15.00;33.99;95729.69;5073151;28;21198;-70
2023/03/30 08:57:30;;;;;;;;;;;;;;;14.65;32.53;95719.09;5072437;28;20413;-69
2023/03/30 09:00:12;;;;;;;;;;;;;;;14.87;33.20;95720.44;5073238;28;19939;-71
2023/03/30 09:02:41;;;;;;;;;;;;;;;14.73;32.06;95711.44;5072542;28;19939;-68
2023/03/30 09:05:27;;;;;;;;;;;;;;;14.86;32.21;95721.50;5073274;28;20377;-70
2023/03/30 09:07:56;;;;;;;;;;;;;;;15.14;32.41;95707.78;5072468;28;19928;-69
2023/03/30 09:10:26;;;;;;;;;;;;;;;14.66;32.48;95704.84;5073482;28;19948;-69
2023/03/30 09:12:56;;;;;;;;;;;;;;;14.64;32.70;95710.38;5059885;28;20018;-70
2023/03/30 09:15:23;;;;;;;;;;;;;;;14.96;33.42;95705.66;5073345;28;19959;-71
2023/03/30 09:17:52;;;;;;;;;;;;;;;15.15;32.33;95698.81;5072481;28;20333;-68
2023/03/30 09:20:21;;;;;;;;;;;;;;;14.94;32.39;95705.13;5072621;28;19924;-73
2023/03/30 09:22:48;;;;;;;;;;;;;;;15.17;32.52;95706.47;5072560;28;20352;-66
2023/03/30 09:25:22;;;;;;;;;;;;;;;15.03;32.72;95690.38;5072913;28;20353;-70
2023/03/30 09:27:49;;;;;;;;;;;;;;;15.29;32.23;95685.09;5072791;28;19924;-70
2023/03/30 09:30:21;;;;;;;;;;;;;;;15.01;32.08;95687.22;5072986;28;20000;-69
2023/03/30 09:32:56;;;;;;;;;;;;;;;15.29;32.59;95693.03;5072479;28;19967;-68
2023/03/30 09:35:39;;;;;;;;;;;;;;;16.15;31.91;95665.34;5059518;28;19947;-67
2023/03/30 09:38:12;;;;;;;;;;;;;;;16.04;31.32;95663.81;5072313;28;20011;-68
2023/03/30 09:40:38;;;;;;;;;;;;;;;16.50;30.91;95664.41;5072868;28;19941;-67
2023/03/30 09:43:24;;;;;;;;;;;;;;;16.71;29.86;95658.75;5071655;28;19989;-67
2023/03/30 09:45:51;;;;;;;;;;;;;;;17.45;31.03;95649.66;5072663;28;20426;-70
2023/03/30 09:48:18;;;;;;;;;;;;;;;17.39;29.59;95643.63;5072489;28;19977;-69
2023/03/30 09:50:45;;;;;;;;;;;;;;;16.99;28.85;95644.78;5064065;28;19955;-70
2023/03/30 09:53:18;;;;;;;;;;;;;;;16.31;30.00;95640.44;5069698;28;19933;-66
2023/03/30 09:55:54;;;;;;;;;;;;;;;17.20;30.41;95640.09;5054143;28;19927;-72
2023/03/30 09:58:31;;;;;;;;;;;;;;;17.68;30.01;95638.34;5072642;28;19994;-71
2023/03/30 10:01:04;;;;;;;;;;;;;;;17.83;29.06;95632.84;5071621;28;19935;-67
2023/03/30 10:03:31;;;;;;;;;;;;;;;17.67;28.71;95629.59;5071907;28;19944;-67
2023/03/30 10:06:06;;;;;;;;;;;;;;;17.69;27.38;95621.34;5071489;28;19943;-69
2023/03/30 10:08:36;;;;;;;;;;;;;;;17.08;28.30;95631.72;5071749;28;20078;-70
2023/03/30 10:11:05;;;;;;;;;;;;;;;16.12;28.41;95639.47;5071205;28;20352;-68
2023/03/30 10:13:34;;;;;;;;;;;;;;;16.40;28.59;95636.16;5072167;28;19947;-68
2023/03/30 10:16:16;;;;;;;;;;;;;;;14.83;30.25;95642.88;5071432;28;19974;-68
2023/03/30 10:18:44;;;;;;;;;;;;;;;15.92;29.73;95639.53;5071464;28;19938;-68
2023/03/30 10:21:14;;;;;;;;;;;;;;;15.05;29.39;95645.25;5071197;28;19954;-70
2023/03/30 10:23:43;;;;;;;;;;;;;;;15.42;30.03;95637.81;5071573;28;19944;-70
2023/03/30 10:26:16;;;;;;;;;;;;;;;15.32;29.44;95634.38;5071162;28;20210;-67
2023/03/30 10:28:56;;;;;;;;;;;;;;;14.80;30.97;95626.75;5071297;28;20000;-67
2023/03/30 10:31:23;;;;;;;;;;;;;;;15.65;30.17;95623.25;5070884;28;20382;-68
2023/03/30 10:33:58;;;;;;;;;;;;;;;16.11;29.27;95619.38;5071378;28;19944;-67
2023/03/30 10:36:29;;;;;;;;;;;;;;;16.57;28.79;95615.44;5070516;28;19945;-66
2023/03/30 10:39:18;;;;;;;;;;;;;;;16.98;29.16;95610.63;5071596;28;19986;-69
2023/03/30 10:41:46;;;;;;;;;;;;;;;15.53;29.79;95625.41;5043880;28;19976;-68
2023/03/30 10:44:29;;;;;;;;;;;;;;;15.82;29.62;95623.75;5070863;28;20395;-70
2023/03/30 10:47:15;;;;;;;;;;;;;;;16.58;29.70;95606.44;5070366;28;19966;-68
2023/03/30 10:50:01;;;;;;;;;;;;;;;16.76;29.19;95607.63;5071056;28;20010;-69
2023/03/30 10:52:35;;;;;;;;;;;;;;;16.54;29.57;95610.69;5070663;28;19924;-68
2023/03/30 10:55:21;;;;;;;;;;;;;;;16.70;29.56;95592.84;5070928;28;20478;-71
2023/03/30 10:57:48;;;;;;;;;;;;;;;16.67;28.62;95593.41;5070218;28;20686;-68
2023/03/30 11:00:17;;;;;;;;;;;;;;;17.03;28.30;95587.53;5070608;28;20345;-71
2023/03/30 11:03:05;;;;;;;;;;;;;;;16.32;28.73;95586.47;5070275;28;20589;-69
2023/03/30 11:05:37;;;;;;;;;;;;;;;16.31;28.92;95587.53;5070361;28;19943;-70
2023/03/30 11:08:05;;;;;;;;;;;;;;;16.60;29.12;95583.16;5057428;28;20394;-71
2023/03/30 11:10:36;;;;;;;;;;;;;;;16.45;28.59;95582.41;5071092;28;19972;-67
2023/03/30 11:13:17;;;;;;;;;;;;;;;16.72;28.56;95580.13;5070096;28;19933;-67
2023/03/30 11:15:53;;;;;;;;;;;;;;;16.94;28.01;95578.63;5075365;28;19947;-67
2023/03/30 11:18:22;;;;;;;;;;;;;;;16.65;28.65;95567.22;5073354;28;20341;-66
2023/03/30 11:21:00;;;;;;;;;;;;;;;16.27;29.10;95568.00;5070246;28;20306;-67
2023/03/30 11:23:36;;;;;;;;;;;;;;;15.52;29.19;95565.69;5070336;28;19941;-69
2023/03/30 11:26:05;;;;;;;;;;;;;;;16.33;29.04;95560.81;5070069;28;19940;-70
2023/03/30 11:28:32;;;;;;;;;;;;;;;16.53;28.47;95558.06;5070237;28;19920;-71
2023/03/30 11:31:03;;;;;;;;;;;;;;;16.09;28.52;95563.34;5070104;28;19970;-69
2023/03/30 11:33:42;;;;;;;;;;;;;;;16.23;28.82;95554.53;5070615;28;19924;-70
2023/03/30 11:36:20;;;;;;;;;;;;;;;16.02;28.62;95544.34;5069277;28;19951;-73
2023/03/30 11:38:59;;;;;;;;;;;;;;;15.77;29.40;95547.09;5070654;28;19924;-69
2023/03/30 11:41:30;;;;;;;;;;;;;;;16.64;28.74;95531.22;5070360;28;19935;-68
2023/03/30 11:43:57;;;;;;;;;;;;;;;17.69;27.67;95531.25;5070637;28;19969;-71
2023/03/30 11:46:24;;;;;;;;;;;;;;;17.69;27.66;95515.34;5069651;28;19928;-71
2023/03/30 11:49:10;;;;;;;;;;;;;;;18.06;26.54;95520.69;5070729;28;19924;-69
2023/03/30 11:51:57;;;;;;;;;;;;;;;18.45;25.90;95518.53;5057807;28;20363;-69
2023/03/30 11:54:33;;;;;;;;;;;;;;;19.22;26.29;95511.63;5043850;28;19920;-69
2023/03/30 11:57:16;;;;;;;;;;;;;;;19.69;24.98;95508.59;5069793;28;20438;-71
2023/03/30 11:59:49;;;;;;;;;;;;;;;19.93;24.52;95495.88;5059096;28;19941;-68
2023/03/30 12:02:19;;;;;;;;;;;;;;;19.90;24.31;95495.69;5069282;28;19925;-68
2023/03/30 12:04:46;;;;;;;;;;;;;;;20.37;23.88;95492.50;5069539;28;20019;-70
2023/03/30 12:07:27;;;;;;;;;;;;;;;20.12;24.28;95479.75;5074861;28;19927;-68
2023/03/30 12:09:57;;;;;;;;;;;;;;;19.60;24.24;95480.34;5079712;28;19980;-68
2023/03/30 12:12:33;;;;;;;;;;;;;;;19.61;23.70;95472.09;5076208;28;20294;-70
2023/03/30 12:15:25;;;;;;;;;;;;;;;19.94;23.42;95467.41;5070007;28;20004;-68
2023/03/30 12:17:58;;;;;;;;;;;;;;;20.15;23.62;95466.66;5060225;28;19931;-71
2023/03/30 12:20:28;;;;;;;;;;;;;;;20.47;23.69;95459.53;5070386;28;20629;-70
2023/03/30 12:22:55;;;;;;;;;;;;;;;20.27;23.34;95452.84;5069670;28;19958;-72
2023/03/30 12:25:25;;;;;;;;;;;;;;;21.49;22.73;95452.06;5069889;28;20357;-69
2023/03/30 12:27:57;;;;;;;;;;;;;;;21.22;23.05;95446.16;5069641;28;20042;-69
2023/03/30 12:30:25;;;;;;;;;;;;;;;20.24;23.20;95453.44;5069697;28;19951;-69
2023/03/30 12:32:55;;;;;;;;;;;;;;;20.04;23.70;95449.34;5068865;28;20670;-69
2023/03/30 12:35:41;;;;;;;;;;;;;;;19.88;23.42;95444.66;5056486;28;19974;-69
2023/03/30 12:38:12;;;;;;;;;;;;;;;19.98;23.30;95433.81;5068857;28;19928;-70
2023/03/30 12:40:45;;;;;;;;;;;;;;;19.46;24.19;95431.75;5069263;28;20011;-71
2023/03/30 12:43:23;;;;;;;;;;;;;;;19.50;23.74;95433.53;5068838;28;19974;-73
2023/03/30 12:46:07;;;;;;;;;;;;;;;18.86;24.17;95437.16;5068912;28;19978;-70
2023/03/30 12:48:43;;;;;;;;;;;;;;;19.77;23.80;95412.19;5051853;28;19963;-73
2023/03/30 12:51:15;;;;;;;;;;;;;;;20.37;22.99;95415.31;5068305;28;20014;-72
2023/03/30 12:53:41;;;;;;;;;;;;;;;20.86;23.59;95407.13;5069792;28;19924;-69
2023/03/30 12:56:08;;;;;;;;;;;;;;;21.06;22.54;95406.59;5068706;28;20667;-71
2023/03/30 12:58:53;;;;;;;;;;;;;;;20.69;22.29;95401.72;5071745;28;20428;-64
2023/03/30 13:01:39;;;;;;;;;;;;;;;20.32;22.95;95402.13;5066523;28;19920;-69
2023/03/30 13:04:12;;;;;;;;;;;;;;;20.20;22.80;95401.88;5069733;28;20349;-72
2023/03/30 13:06:52;;;;;;;;;;;;;;;19.84;23.32;95401.91;5069105;28;19942;-75
2023/03/30 13:09:19;;;;;;;;;;;;;;;20.10;22.95;95394.13;5069657;28;20019;-68
2023/03/30 13:11:46;;;;;;;;;;;;;;;20.69;22.63;95391.06;5068863;28;20003;-70
2023/03/30 13:14:26;;;;;;;;;;;;;;;21.03;22.23;95375.25;5069182;28;19960;-71
2023/03/30 13:16:53;;;;;;;;;;;;;;;20.12;22.59;95374.13;5069328;28;20364;-71
2023/03/30 13:19:24;;;;;;;;;;;;;;;20.22;22.49;95365.13;5072840;28;19930;-69
2023/03/30 13:21:56;;;;;;;;;;;;;;;21.41;22.11;95369.38;5072263;28;19991;-67
2023/03/30 13:24:22;;;;;;;;;;;;;;;21.41;21.96;95354.16;5072646;28;19955;-66
2023/03/30 13:26:50;;;;;;;;;;;;;;;20.91;22.22;95359.03;5071856;28;19994;-69